Oranjestad, Saint Eustatius F.D. Roosevelt Airport (TNCE)

NameSaint Eustatius F.D. Roosevelt Airport
CityOranjestad
CountryNetherlands Antilles
ICAOTNCE
IATAEUX
Altitude39 m
CoordinatesGoogle Map
Live Air TrafficLiveATC.net
METARTNCE 170455Z AUTO 10003KT 040V190 //// // ///////// 25/22 Q1018 RE//
2019-02-17 04:55:00 Wind: East (100°) 1.54 m/s - Visibility: 1000 m - Temperature: 25 °C - Dew point: 22 °C - Humidity: 83.5% - Pressure: 1018 hPa
Statistics

The table below shows the detailed information of all flights to/from Oranjestad, Saint Eustatius F.D. Roosevelt Airport (TNCE).